sensor_id;sensor_type;location;lat;lon;timestamp;P1;durP1;ratioP1;P2;durP2;ratioP2
35743;SDS011;21867;52.012;4.324;2023-03-01T00:02:25;8.03;;;6.83;;
35743;SDS011;21867;52.012;4.324;2023-03-01T00:04:52;7.50;;;6.47;;
35743;SDS011;21867;52.012;4.324;2023-03-01T00:07:19;7.60;;;6.33;;
35743;SDS011;21867;52.012;4.324;2023-03-01T00:09:46;6.70;;;6.10;;
35743;SDS011;21867;52.012;4.324;2023-03-01T00:12:14;7.03;;;6.33;;
35743;SDS011;21867;52.012;4.324;2023-03-01T00:14:41;7.60;;;6.73;;
35743;SDS011;21867;52.012;4.324;2023-03-01T00:17:09;10.43;;;6.93;;
35743;SDS011;21867;52.012;4.324;2023-03-01T00:19:37;9.37;;;7.60;;
35743;SDS011;21867;52.012;4.324;2023-03-01T00:22:04;9.13;;;6.80;;
35743;SDS011;21867;52.012;4.324;2023-03-01T00:24:31;7.73;;;6.50;;
35743;SDS011;21867;52.012;4.324;2023-03-01T00:26:58;7.43;;;6.73;;
35743;SDS011;21867;52.012;4.324;2023-03-01T00:29:26;7.20;;;6.60;;
35743;SDS011;21867;52.012;4.324;2023-03-01T00:31:54;7.70;;;6.83;;
35743;SDS011;21867;52.012;4.324;2023-03-01T00:34:22;8.23;;;6.77;;
35743;SDS011;21867;52.012;4.324;2023-03-01T00:36:50;7.07;;;6.43;;
35743;SDS011;21867;52.012;4.324;2023-03-01T00:39:17;7.50;;;6.70;;
35743;SDS011;21867;52.012;4.324;2023-03-01T00:41:59;8.93;;;8.10;;
35743;SDS011;21867;52.012;4.324;2023-03-01T00:47:37;8.77;;;7.70;;
35743;SDS011;21867;52.012;4.324;2023-03-01T00:50:06;8.33;;;7.53;;
35743;SDS011;21867;52.012;4.324;2023-03-01T00:52:33;8.57;;;7.20;;
35743;SDS011;21867;52.012;4.324;2023-03-01T00:55:01;8.97;;;7.83;;
35743;SDS011;21867;52.012;4.324;2023-03-01T00:57:28;9.57;;;8.17;;
35743;SDS011;21867;52.012;4.324;2023-03-01T01:02:38;9.90;;;8.30;;
35743;SDS011;21867;52.012;4.324;2023-03-01T01:05:07;8.93;;;7.40;;
35743;SDS011;21867;52.012;4.324;2023-03-01T01:07:35;7.97;;;7.17;;
35743;SDS011;21867;52.012;4.324;2023-03-01T01:13:03;11.73;;;8.53;;
35743;SDS011;21867;52.012;4.324;2023-03-01T01:15:36;9.20;;;8.30;;
35743;SDS011;21867;52.012;4.324;2023-03-01T01:18:04;11.93;;;8.50;;
35743;SDS011;21867;52.012;4.324;2023-03-01T01:20:32;9.40;;;8.40;;
35743;SDS011;21867;52.012;4.324;2023-03-01T01:23:00;10.63;;;8.97;;
35743;SDS011;21867;52.012;4.324;2023-03-01T01:25:27;9.63;;;8.63;;
35743;SDS011;21867;52.012;4.324;2023-03-01T01:27:54;10.70;;;9.60;;
35743;SDS011;21867;52.012;4.324;2023-03-01T01:30:21;10.57;;;9.50;;
35743;SDS011;21867;52.012;4.324;2023-03-01T01:32:50;10.33;;;9.30;;
35743;SDS011;21867;52.012;4.324;2023-03-01T01:35:17;11.70;;;9.47;;
35743;SDS011;21867;52.012;4.324;2023-03-01T01:37:46;10.83;;;9.20;;
35743;SDS011;21867;52.012;4.324;2023-03-01T01:40:22;9.70;;;8.70;;
35743;SDS011;21867;52.012;4.324;2023-03-01T01:45:45;10.37;;;9.27;;
35743;SDS011;21867;52.012;4.324;2023-03-01T01:48:14;12.03;;;9.10;;
35743;SDS011;21867;52.012;4.324;2023-03-01T01:50:44;9.73;;;8.77;;
35743;SDS011;21867;52.012;4.324;2023-03-01T01:53:14;10.97;;;9.83;;
35743;SDS011;21867;52.012;4.324;2023-03-01T01:55:43;11.77;;;10.43;;
35743;SDS011;21867;52.012;4.324;2023-03-01T01:58:13;11.70;;;10.03;;
35743;SDS011;21867;52.012;4.324;2023-03-01T02:00:48;11.13;;;9.53;;
35743;SDS011;21867;52.012;4.324;2023-03-01T02:03:17;10.87;;;9.77;;
35743;SDS011;21867;52.012;4.324;2023-03-01T02:05:47;10.90;;;9.80;;
35743;SDS011;21867;52.012;4.324;2023-03-01T02:08:22;10.87;;;9.73;;
35743;SDS011;21867;52.012;4.324;2023-03-01T02:17:36;11.70;;;10.47;;
35743;SDS011;21867;52.012;4.324;2023-03-01T02:20:07;11.33;;;10.13;;
35743;SDS011;21867;52.012;4.324;2023-03-01T02:22:37;12.17;;;10.93;;
35743;SDS011;21867;52.012;4.324;2023-03-01T02:25:10;11.50;;;10.40;;
35743;SDS011;21867;52.012;4.324;2023-03-01T02:27:43;11.33;;;10.17;;
35743;SDS011;21867;52.012;4.324;2023-03-01T02:30:14;11.13;;;9.97;;
35743;SDS011;21867;52.012;4.324;2023-03-01T02:32:43;12.77;;;11.07;;
35743;SDS011;21867;52.012;4.324;2023-03-01T02:35:10;12.87;;;11.67;;
35743;SDS011;21867;52.012;4.324;2023-03-01T02:37:39;12.73;;;10.93;;
35743;SDS011;21867;52.012;4.324;2023-03-01T02:43:05;11.57;;;10.43;;
35743;SDS011;21867;52.012;4.324;2023-03-01T02:45:36;12.50;;;11.00;;
35743;SDS011;21867;52.012;4.324;2023-03-01T02:48:03;12.30;;;11.00;;
35743;SDS011;21867;52.012;4.324;2023-03-01T02:50:41;12.43;;;11.13;;
35743;SDS011;21867;52.012;4.324;2023-03-01T02:53:12;14.23;;;12.30;;
35743;SDS011;21867;52.012;4.324;2023-03-01T02:55:42;13.20;;;11.90;;
35743;SDS011;21867;52.012;4.324;2023-03-01T03:01:02;12.47;;;11.10;;
35743;SDS011;21867;52.012;4.324;2023-03-01T03:03:30;14.50;;;12.00;;
35743;SDS011;21867;52.012;4.324;2023-03-01T03:05:57;15.50;;;13.33;;
35743;SDS011;21867;52.012;4.324;2023-03-01T03:08:34;14.23;;;11.43;;
35743;SDS011;21867;52.012;4.324;2023-03-01T03:14:46;14.00;;;12.50;;
35743;SDS011;21867;52.012;4.324;2023-03-01T03:17:15;13.50;;;12.07;;
35743;SDS011;21867;52.012;4.324;2023-03-01T03:19:42;12.93;;;11.60;;
35743;SDS011;21867;52.012;4.324;2023-03-01T03:22:09;13.50;;;12.10;;
35743;SDS011;21867;52.012;4.324;2023-03-01T03:24:36;14.33;;;12.83;;
35743;SDS011;21867;52.012;4.324;2023-03-01T03:27:13;13.10;;;11.80;;
35743;SDS011;21867;52.012;4.324;2023-03-01T03:29:40;14.80;;;12.30;;
35743;SDS011;21867;52.012;4.324;2023-03-01T03:32:07;14.33;;;12.80;;
35743;SDS011;21867;52.012;4.324;2023-03-01T03:34:36;14.17;;;12.43;;
35743;SDS011;21867;52.012;4.324;2023-03-01T03:37:03;13.97;;;12.33;;
35743;SDS011;21867;52.012;4.324;2023-03-01T03:39:43;16.17;;;12.37;;
35743;SDS011;21867;52.012;4.324;2023-03-01T03:43:06;14.13;;;12.03;;
35743;SDS011;21867;52.012;4.324;2023-03-01T03:45:33;14.00;;;12.00;;
35743;SDS011;21867;52.012;4.324;2023-03-01T03:48:02;14.53;;;12.30;;
35743;SDS011;21867;52.012;4.324;2023-03-01T03:50:31;13.30;;;12.00;;
35743;SDS011;21867;52.012;4.324;2023-03-01T03:52:59;14.27;;;12.13;;
35743;SDS011;21867;52.012;4.324;2023-03-01T03:55:27;16.47;;;13.30;;
35743;SDS011;21867;52.012;4.324;2023-03-01T03:57:54;13.23;;;11.83;;
35743;SDS011;21867;52.012;4.324;2023-03-01T04:00:24;17.93;;;12.87;;
35743;SDS011;21867;52.012;4.324;2023-03-01T04:02:51;15.37;;;12.77;;
35743;SDS011;21867;52.012;4.324;2023-03-01T04:05:18;15.47;;;13.63;;
35743;SDS011;21867;52.012;4.324;2023-03-01T04:13:31;15.10;;;11.80;;
35743;SDS011;21867;52.012;4.324;2023-03-01T04:15:58;15.60;;;13.50;;
35743;SDS011;21867;52.012;4.324;2023-03-01T04:18:26;17.03;;;13.43;;
35743;SDS011;21867;52.012;4.324;2023-03-01T04:20:53;15.03;;;13.37;;
35743;SDS011;21867;52.012;4.324;2023-03-01T04:23:20;14.77;;;13.20;;
35743;SDS011;21867;52.012;4.324;2023-03-01T04:25:48;14.13;;;12.67;;
35743;SDS011;21867;52.012;4.324;2023-03-01T04:28:16;15.37;;;13.70;;
35743;SDS011;21867;52.012;4.324;2023-03-01T04:30:45;17.30;;;13.30;;
35743;SDS011;21867;52.012;4.324;2023-03-01T04:33:12;15.93;;;13.80;;
35743;SDS011;21867;52.012;4.324;2023-03-01T04:35:39;15.77;;;13.43;;
35743;SDS011;21867;52.012;4.324;2023-03-01T04:38:07;17.30;;;12.87;;
35743;SDS011;21867;52.012;4.324;2023-03-01T04:40:35;14.07;;;12.67;;
35743;SDS011;21867;52.012;4.324;2023-03-01T04:46:15;14.83;;;13.33;;
35743;SDS011;21867;52.012;4.324;2023-03-01T04:48:43;16.53;;;14.20;;
35743;SDS011;21867;52.012;4.324;2023-03-01T04:51:11;17.57;;;13.73;;
35743;SDS011;21867;52.012;4.324;2023-03-01T04:53:38;17.77;;;14.43;;
35743;SDS011;21867;52.012;4.324;2023-03-01T04:56:06;15.77;;;13.57;;
35743;SDS011;21867;52.012;4.324;2023-03-01T04:58:39;20.83;;;15.77;;
35743;SDS011;21867;52.012;4.324;2023-03-01T05:01:09;16.73;;;14.90;;
35743;SDS011;21867;52.012;4.324;2023-03-01T05:03:38;17.00;;;15.10;;
35743;SDS011;21867;52.012;4.324;2023-03-01T05:06:08;17.27;;;14.00;;
35743;SDS011;21867;52.012;4.324;2023-03-01T05:08:36;15.20;;;13.60;;
35743;SDS011;21867;52.012;4.324;2023-03-01T05:11:04;17.40;;;14.93;;
35743;SDS011;21867;52.012;4.324;2023-03-01T05:13:36;19.00;;;16.00;;
35743;SDS011;21867;52.012;4.324;2023-03-01T05:16:04;17.20;;;15.40;;
35743;SDS011;21867;52.012;4.324;2023-03-01T05:18:33;17.00;;;15.20;;
35743;SDS011;21867;52.012;4.324;2023-03-01T05:21:03;15.67;;;13.90;;
35743;SDS011;21867;52.012;4.324;2023-03-01T05:26:36;21.40;;;15.37;;
35743;SDS011;21867;52.012;4.324;2023-03-01T05:29:03;15.70;;;14.03;;
35743;SDS011;21867;52.012;4.324;2023-03-01T05:31:30;16.50;;;14.80;;
35743;SDS011;21867;52.012;4.324;2023-03-01T05:33:58;15.47;;;13.77;;
35743;SDS011;21867;52.012;4.324;2023-03-01T05:36:26;21.93;;;14.43;;
35743;SDS011;21867;52.012;4.324;2023-03-01T05:38:54;16.30;;;14.50;;
35743;SDS011;21867;52.012;4.324;2023-03-01T05:41:26;19.33;;;13.57;;
35743;SDS011;21867;52.012;4.324;2023-03-01T05:43:53;20.60;;;14.73;;
35743;SDS011;21867;52.012;4.324;2023-03-01T05:46:20;15.53;;;13.93;;
35743;SDS011;21867;52.012;4.324;2023-03-01T05:48:48;17.10;;;14.17;;
35743;SDS011;21867;52.012;4.324;2023-03-01T05:51:21;15.77;;;14.07;;
35743;SDS011;21867;52.012;4.324;2023-03-01T05:56:57;15.50;;;13.73;;
35743;SDS011;21867;52.012;4.324;2023-03-01T05:59:25;15.83;;;13.87;;
35743;SDS011;21867;52.012;4.324;2023-03-01T06:01:52;14.33;;;12.87;;
35743;SDS011;21867;52.012;4.324;2023-03-01T06:04:19;15.13;;;13.13;;
35743;SDS011;21867;52.012;4.324;2023-03-01T06:06:46;13.97;;;12.57;;
35743;SDS011;21867;52.012;4.324;2023-03-01T06:09:14;18.60;;;14.20;;
35743;SDS011;21867;52.012;4.324;2023-03-01T06:11:46;14.10;;;12.70;;
35743;SDS011;21867;52.012;4.324;2023-03-01T06:14:15;13.67;;;12.27;;
35743;SDS011;21867;52.012;4.324;2023-03-01T06:16:42;18.30;;;12.43;;
35743;SDS011;21867;52.012;4.324;2023-03-01T06:19:09;14.30;;;12.13;;
35743;SDS011;21867;52.012;4.324;2023-03-01T06:27:34;13.70;;;12.30;;
35743;SDS011;21867;52.012;4.324;2023-03-01T06:30:03;15.00;;;13.23;;
35743;SDS011;21867;52.012;4.324;2023-03-01T06:32:31;15.10;;;13.60;;
35743;SDS011;21867;52.012;4.324;2023-03-01T06:34:58;15.10;;;12.67;;
35743;SDS011;21867;52.012;4.324;2023-03-01T06:37:25;13.00;;;11.70;;
35743;SDS011;21867;52.012;4.324;2023-03-01T06:39:53;16.93;;;13.30;;
35743;SDS011;21867;52.012;4.324;2023-03-01T06:42:20;15.97;;;14.33;;
35743;SDS011;21867;52.012;4.324;2023-03-01T06:44:48;18.03;;;13.83;;
35743;SDS011;21867;52.012;4.324;2023-03-01T06:47:18;15.53;;;14.00;;
35743;SDS011;21867;52.012;4.324;2023-03-01T06:49:45;15.63;;;14.03;;
35743;SDS011;21867;52.012;4.324;2023-03-01T06:55:17;15.33;;;13.73;;
35743;SDS011;21867;52.012;4.324;2023-03-01T06:57:45;14.83;;;13.27;;
35743;SDS011;21867;52.012;4.324;2023-03-01T07:00:12;16.03;;;13.73;;
35743;SDS011;21867;52.012;4.324;2023-03-01T07:02:41;18.33;;;14.57;;
35743;SDS011;21867;52.012;4.324;2023-03-01T07:05:09;16.60;;;14.83;;
35743;SDS011;21867;52.012;4.324;2023-03-01T07:07:36;21.30;;;14.03;;
35743;SDS011;21867;52.012;4.324;2023-03-01T07:10:03;19.73;;;14.07;;
35743;SDS011;21867;52.012;4.324;2023-03-01T07:12:31;21.17;;;15.60;;
35743;SDS011;21867;52.012;4.324;2023-03-01T07:14:58;23.83;;;15.60;;
35743;SDS011;21867;52.012;4.324;2023-03-01T07:17:25;24.87;;;15.13;;
35743;SDS011;21867;52.012;4.324;2023-03-01T07:19:54;20.93;;;14.70;;
35743;SDS011;21867;52.012;4.324;2023-03-01T07:22:21;17.80;;;14.90;;
35743;SDS011;21867;52.012;4.324;2023-03-01T07:24:49;24.13;;;15.53;;
35743;SDS011;21867;52.012;4.324;2023-03-01T07:27:16;17.67;;;15.10;;
35743;SDS011;21867;52.012;4.324;2023-03-01T07:29:43;23.87;;;14.90;;
35743;SDS011;21867;52.012;4.324;2023-03-01T07:32:11;17.13;;;14.27;;
35743;SDS011;21867;52.012;4.324;2023-03-01T07:34:38;16.27;;;14.43;;
35743;SDS011;21867;52.012;4.324;2023-03-01T07:37:07;16.43;;;14.23;;
35743;SDS011;21867;52.012;4.324;2023-03-01T07:39:34;17.00;;;14.27;;
35743;SDS011;21867;52.012;4.324;2023-03-01T07:42:01;18.23;;;13.87;;
35743;SDS011;21867;52.012;4.324;2023-03-01T07:44:28;20.93;;;14.27;;
35743;SDS011;21867;52.012;4.324;2023-03-01T07:46:56;20.50;;;13.13;;
35743;SDS011;21867;52.012;4.324;2023-03-01T07:49:23;17.27;;;14.57;;
35743;SDS011;21867;52.012;4.324;2023-03-01T07:51:50;15.77;;;13.17;;
35743;SDS011;21867;52.012;4.324;2023-03-01T07:54:19;16.10;;;14.00;;
35743;SDS011;21867;52.012;4.324;2023-03-01T07:56:46;23.50;;;11.97;;
35743;SDS011;21867;52.012;4.324;2023-03-01T07:59:14;17.73;;;15.40;;
35743;SDS011;21867;52.012;4.324;2023-03-01T08:01:41;15.47;;;13.50;;
35743;SDS011;21867;52.012;4.324;2023-03-01T08:04:08;15.53;;;13.33;;
35743;SDS011;21867;52.012;4.324;2023-03-01T08:06:35;14.87;;;13.37;;
35743;SDS011;21867;52.012;4.324;2023-03-01T08:09:03;14.57;;;13.03;;
35743;SDS011;21867;52.012;4.324;2023-03-01T08:11:31;13.77;;;11.90;;
35743;SDS011;21867;52.012;4.324;2023-03-01T08:13:59;13.53;;;12.13;;
35743;SDS011;21867;52.012;4.324;2023-03-01T08:16:26;13.60;;;12.30;;
35743;SDS011;21867;52.012;4.324;2023-03-01T08:18:54;13.27;;;11.97;;
35743;SDS011;21867;52.012;4.324;2023-03-01T08:21:21;14.17;;;12.73;;
35743;SDS011;21867;52.012;4.324;2023-03-01T08:23:49;14.63;;;13.27;;
35743;SDS011;21867;52.012;4.324;2023-03-01T08:26:17;16.33;;;13.53;;
35743;SDS011;21867;52.012;4.324;2023-03-01T08:28:46;15.47;;;13.07;;
35743;SDS011;21867;52.012;4.324;2023-03-01T08:31:14;14.07;;;12.37;;
35743;SDS011;21867;52.012;4.324;2023-03-01T08:33:42;14.07;;;12.57;;
35743;SDS011;21867;52.012;4.324;2023-03-01T08:36:09;13.30;;;12.03;;
35743;SDS011;21867;52.012;4.324;2023-03-01T08:38:36;14.67;;;13.10;;
35743;SDS011;21867;52.012;4.324;2023-03-01T08:41:04;14.80;;;11.90;;
35743;SDS011;21867;52.012;4.324;2023-03-01T08:43:31;15.03;;;13.50;;
35743;SDS011;21867;52.012;4.324;2023-03-01T08:46:00;16.87;;;13.03;;
35743;SDS011;21867;52.012;4.324;2023-03-01T08:48:27;13.03;;;11.47;;
35743;SDS011;21867;52.012;4.324;2023-03-01T08:50:55;14.77;;;12.03;;
35743;SDS011;21867;52.012;4.324;2023-03-01T08:53:22;11.90;;;10.63;;
35743;SDS011;21867;52.012;4.324;2023-03-01T08:55:50;10.93;;;9.80;;
35743;SDS011;21867;52.012;4.324;2023-03-01T08:58:17;12.70;;;11.33;;
35743;SDS011;21867;52.012;4.324;2023-03-01T09:00:44;11.57;;;9.93;;
35743;SDS011;21867;52.012;4.324;2023-03-01T09:03:13;12.43;;;10.80;;
35743;SDS011;21867;52.012;4.324;2023-03-01T09:05:40;10.50;;;9.50;;
35743;SDS011;21867;52.012;4.324;2023-03-01T09:08:07;10.23;;;9.30;;
35743;SDS011;21867;52.012;4.324;2023-03-01T09:10:37;13.67;;;10.60;;
35743;SDS011;21867;52.012;4.324;2023-03-01T09:13:04;13.30;;;10.43;;
35743;SDS011;21867;52.012;4.324;2023-03-01T09:15:31;9.43;;;8.23;;
35743;SDS011;21867;52.012;4.324;2023-03-01T09:17:59;8.87;;;7.97;;
35743;SDS011;21867;52.012;4.324;2023-03-01T09:20:27;11.10;;;10.00;;
35743;SDS011;21867;52.012;4.324;2023-03-01T09:22:55;11.00;;;9.87;;
35743;SDS011;21867;52.012;4.324;2023-03-01T09:25:22;8.77;;;7.93;;
35743;SDS011;21867;52.012;4.324;2023-03-01T09:27:50;10.53;;;8.60;;
35743;SDS011;21867;52.012;4.324;2023-03-01T09:30:18;8.83;;;7.93;;
35743;SDS011;21867;52.012;4.324;2023-03-01T09:32:45;8.73;;;7.90;;
35743;SDS011;21867;52.012;4.324;2023-03-01T09:35:12;9.20;;;7.87;;
35743;SDS011;21867;52.012;4.324;2023-03-01T09:37:41;8.57;;;7.43;;
35743;SDS011;21867;52.012;4.324;2023-03-01T09:40:11;9.10;;;8.20;;
35743;SDS011;21867;52.012;4.324;2023-03-01T09:42:44;11.63;;;9.17;;
35743;SDS011;21867;52.012;4.324;2023-03-01T09:45:15;9.27;;;8.30;;
35743;SDS011;21867;52.012;4.324;2023-03-01T09:47:46;7.00;;;5.93;;
35743;SDS011;21867;52.012;4.324;2023-03-01T09:50:13;6.53;;;5.50;;
35743;SDS011;21867;52.012;4.324;2023-03-01T09:52:43;9.37;;;7.07;;
35743;SDS011;21867;52.012;4.324;2023-03-01T09:55:14;7.33;;;6.70;;
35743;SDS011;21867;52.012;4.324;2023-03-01T09:57:43;7.63;;;5.90;;
35743;SDS011;21867;52.012;4.324;2023-03-01T10:00:18;5.43;;;4.93;;
35743;SDS011;21867;52.012;4.324;2023-03-01T10:02:48;7.37;;;5.53;;
35743;SDS011;21867;52.012;4.324;2023-03-01T10:05:24;6.07;;;5.40;;
35743;SDS011;21867;52.012;4.324;2023-03-01T10:07:57;5.90;;;5.30;;
35743;SDS011;21867;52.012;4.324;2023-03-01T10:10:27;4.97;;;4.17;;
35743;SDS011;21867;52.012;4.324;2023-03-01T10:12:56;6.60;;;5.43;;
35743;SDS011;21867;52.012;4.324;2023-03-01T10:15:25;6.77;;;5.43;;
35743;SDS011;21867;52.012;4.324;2023-03-01T10:17:57;6.13;;;5.17;;
35743;SDS011;21867;52.012;4.324;2023-03-01T10:20:30;6.40;;;5.80;;
35743;SDS011;21867;52.012;4.324;2023-03-01T10:23:02;6.87;;;4.80;;
35743;SDS011;21867;52.012;4.324;2023-03-01T10:25:38;6.63;;;5.93;;
35743;SDS011;21867;52.012;4.324;2023-03-01T10:28:10;6.33;;;5.67;;
35743;SDS011;21867;52.012;4.324;2023-03-01T10:30:42;5.57;;;5.07;;
35743;SDS011;21867;52.012;4.324;2023-03-01T10:33:13;6.77;;;6.13;;
35743;SDS011;21867;52.012;4.324;2023-03-01T10:35:42;6.30;;;5.70;;
35743;SDS011;21867;52.012;4.324;2023-03-01T10:38:11;5.87;;;5.13;;
35743;SDS011;21867;52.012;4.324;2023-03-01T10:40:49;6.00;;;5.53;;
35743;SDS011;21867;52.012;4.324;2023-03-01T10:43:17;7.07;;;6.47;;
35743;SDS011;21867;52.012;4.324;2023-03-01T10:45:44;8.43;;;6.53;;
35743;SDS011;21867;52.012;4.324;2023-03-01T10:48:12;6.97;;;6.27;;
35743;SDS011;21867;52.012;4.324;2023-03-01T10:50:40;6.53;;;5.93;;
35743;SDS011;21867;52.012;4.324;2023-03-01T10:53:19;7.87;;;6.77;;
35743;SDS011;21867;52.012;4.324;2023-03-01T10:55:47;8.60;;;7.20;;
35743;SDS011;21867;52.012;4.324;2023-03-01T10:58:22;8.47;;;7.43;;
35743;SDS011;21867;52.012;4.324;2023-03-01T11:00:50;10.77;;;7.67;;
35743;SDS011;21867;52.012;4.324;2023-03-01T11:03:19;7.50;;;6.80;;
35743;SDS011;21867;52.012;4.324;2023-03-01T11:05:53;7.63;;;6.93;;
35743;SDS011;21867;52.012;4.324;2023-03-01T11:08:30;9.47;;;6.77;;
35743;SDS011;21867;52.012;4.324;2023-03-01T11:13:53;8.53;;;7.17;;
35743;SDS011;21867;52.012;4.324;2023-03-01T11:16:25;8.07;;;7.33;;
35743;SDS011;21867;52.012;4.324;2023-03-01T11:18:56;10.40;;;8.20;;
35743;SDS011;21867;52.012;4.324;2023-03-01T11:21:24;8.87;;;5.60;;
35743;SDS011;21867;52.012;4.324;2023-03-01T11:23:53;7.77;;;6.83;;
35743;SDS011;21867;52.012;4.324;2023-03-01T11:26:21;7.03;;;5.90;;
35743;SDS011;21867;52.012;4.324;2023-03-01T11:28:49;7.43;;;6.73;;
35743;SDS011;21867;52.012;4.324;2023-03-01T11:31:18;8.83;;;7.10;;
35743;SDS011;21867;52.012;4.324;2023-03-01T11:33:46;8.97;;;6.77;;
35743;SDS011;21867;52.012;4.324;2023-03-01T11:36:16;8.47;;;6.60;;
35743;SDS011;21867;52.012;4.324;2023-03-01T11:38:46;6.97;;;6.37;;
35743;SDS011;21867;52.012;4.324;2023-03-01T11:41:16;7.00;;;6.40;;
35743;SDS011;21867;52.012;4.324;2023-03-01T11:43:47;7.27;;;6.53;;
35743;SDS011;21867;52.012;4.324;2023-03-01T11:46:32;6.13;;;5.40;;
35743;SDS011;21867;52.012;4.324;2023-03-01T11:49:08;6.83;;;5.50;;
35743;SDS011;21867;52.012;4.324;2023-03-01T11:51:41;8.17;;;7.37;;
35743;SDS011;21867;52.012;4.324;2023-03-01T11:54:18;9.03;;;7.33;;
35743;SDS011;21867;52.012;4.324;2023-03-01T11:56:50;8.70;;;7.80;;
35743;SDS011;21867;52.012;4.324;2023-03-01T12:02:25;8.63;;;7.70;;
35743;SDS011;21867;52.012;4.324;2023-03-01T12:05:02;8.63;;;7.73;;
35743;SDS011;21867;52.012;4.324;2023-03-01T12:07:36;8.80;;;7.87;;
35743;SDS011;21867;52.012;4.324;2023-03-01T12:10:17;10.17;;;8.77;;
35743;SDS011;21867;52.012;4.324;2023-03-01T12:12:51;9.40;;;8.40;;
35743;SDS011;21867;52.012;4.324;2023-03-01T12:15:33;11.73;;;7.43;;
35743;SDS011;21867;52.012;4.324;2023-03-01T12:18:08;9.87;;;7.83;;
35743;SDS011;21867;52.012;4.324;2023-03-01T12:20:41;9.33;;;7.90;;
35743;SDS011;21867;52.012;4.324;2023-03-01T12:23:20;10.47;;;8.93;;
35743;SDS011;21867;52.012;4.324;2023-03-01T12:25:52;9.00;;;8.10;;
35743;SDS011;21867;52.012;4.324;2023-03-01T12:28:44;10.70;;;9.60;;
35743;SDS011;21867;52.012;4.324;2023-03-01T12:31:21;12.70;;;9.83;;
35743;SDS011;21867;52.012;4.324;2023-03-01T12:33:58;10.10;;;8.83;;
35743;SDS011;21867;52.012;4.324;2023-03-01T12:36:31;8.87;;;7.97;;
35743;SDS011;21867;52.012;4.324;2023-03-01T12:39:06;10.67;;;7.83;;
35743;SDS011;21867;52.012;4.324;2023-03-01T12:41:46;8.40;;;7.60;;
35743;SDS011;21867;52.012;4.324;2023-03-01T12:44:24;8.20;;;6.43;;
35743;SDS011;21867;52.012;4.324;2023-03-01T12:46:59;9.37;;;8.30;;
35743;SDS011;21867;52.012;4.324;2023-03-01T12:49:31;10.70;;;6.50;;
35743;SDS011;21867;52.012;4.324;2023-03-01T12:52:02;8.80;;;7.90;;
35743;SDS011;21867;52.012;4.324;2023-03-01T12:54:31;10.20;;;9.17;;
35743;SDS011;21867;52.012;4.324;2023-03-01T12:57:27;7.47;;;6.30;;
35743;SDS011;21867;52.012;4.324;2023-03-01T13:00:25;10.20;;;9.03;;
35743;SDS011;21867;52.012;4.324;2023-03-01T13:06:18;12.03;;;8.83;;
35743;SDS011;21867;52.012;4.324;2023-03-01T13:17:43;10.00;;;7.93;;
35743;SDS011;21867;52.012;4.324;2023-03-01T13:23:06;9.53;;;8.17;;
35743;SDS011;21867;52.012;4.324;2023-03-01T13:25:34;12.33;;;10.93;;
35743;SDS011;21867;52.012;4.324;2023-03-01T13:30:54;15.00;;;10.80;;
35743;SDS011;21867;52.012;4.324;2023-03-01T13:33:40;10.10;;;8.53;;
35743;SDS011;21867;52.012;4.324;2023-03-01T13:36:08;10.20;;;8.53;;
35743;SDS011;21867;52.012;4.324;2023-03-01T13:38:37;11.90;;;8.90;;
35743;SDS011;21867;52.012;4.324;2023-03-01T13:41:05;9.73;;;8.10;;
35743;SDS011;21867;52.012;4.324;2023-03-01T13:43:32;11.80;;;6.73;;
35743;SDS011;21867;52.012;4.324;2023-03-01T13:46:00;9.77;;;6.67;;
35743;SDS011;21867;52.012;4.324;2023-03-01T13:48:29;7.73;;;6.93;;
35743;SDS011;21867;52.012;4.324;2023-03-01T13:50:59;8.10;;;6.23;;
35743;SDS011;21867;52.012;4.324;2023-03-01T13:53:29;8.30;;;6.07;;
35743;SDS011;21867;52.012;4.324;2023-03-01T13:55:58;7.33;;;6.03;;
35743;SDS011;21867;52.012;4.324;2023-03-01T13:58:27;9.83;;;6.10;;
35743;SDS011;21867;52.012;4.324;2023-03-01T14:00:56;5.63;;;5.13;;
35743;SDS011;21867;52.012;4.324;2023-03-01T14:03:23;11.07;;;5.63;;
35743;SDS011;21867;52.012;4.324;2023-03-01T14:05:59;5.83;;;5.20;;
35743;SDS011;21867;52.012;4.324;2023-03-01T14:08:39;6.97;;;5.00;;
35743;SDS011;21867;52.012;4.324;2023-03-01T14:11:20;9.60;;;5.03;;
35743;SDS011;21867;52.012;4.324;2023-03-01T14:13:54;7.13;;;5.87;;
35743;SDS011;21867;52.012;4.324;2023-03-01T14:16:29;7.40;;;5.20;;
35743;SDS011;21867;52.012;4.324;2023-03-01T14:19:02;6.13;;;5.03;;
35743;SDS011;21867;52.012;4.324;2023-03-01T14:21:34;8.30;;;4.70;;
35743;SDS011;21867;52.012;4.324;2023-03-01T14:24:01;5.10;;;4.60;;
35743;SDS011;21867;52.012;4.324;2023-03-01T14:26:28;7.17;;;6.03;;
35743;SDS011;21867;52.012;4.324;2023-03-01T14:28:58;6.90;;;5.37;;
35743;SDS011;21867;52.012;4.324;2023-03-01T14:31:35;10.37;;;4.13;;
35743;SDS011;21867;52.012;4.324;2023-03-01T14:34:16;7.63;;;4.60;;
35743;SDS011;21867;52.012;4.324;2023-03-01T14:36:46;6.00;;;4.97;;
35743;SDS011;21867;52.012;4.324;2023-03-01T14:39:17;9.87;;;5.67;;
35743;SDS011;21867;52.012;4.324;2023-03-01T14:41:44;6.63;;;5.20;;
35743;SDS011;21867;52.012;4.324;2023-03-01T14:44:12;6.83;;;4.77;;
35743;SDS011;21867;52.012;4.324;2023-03-01T14:46:41;5.83;;;4.87;;
35743;SDS011;21867;52.012;4.324;2023-03-01T14:49:11;7.53;;;5.17;;
35743;SDS011;21867;52.012;4.324;2023-03-01T14:51:40;6.17;;;4.43;;
35743;SDS011;21867;52.012;4.324;2023-03-01T14:54:18;9.10;;;4.93;;
35743;SDS011;21867;52.012;4.324;2023-03-01T14:56:47;9.57;;;5.10;;
35743;SDS011;21867;52.012;4.324;2023-03-01T14:59:14;7.50;;;6.07;;
35743;SDS011;21867;52.012;4.324;2023-03-01T15:01:41;8.17;;;6.50;;
35743;SDS011;21867;52.012;4.324;2023-03-01T15:04:10;10.03;;;5.33;;
35743;SDS011;21867;52.012;4.324;2023-03-01T15:06:38;8.77;;;6.70;;
35743;SDS011;21867;52.012;4.324;2023-03-01T15:09:06;11.10;;;6.67;;
35743;SDS011;21867;52.012;4.324;2023-03-01T15:11:39;10.03;;;4.60;;
35743;SDS011;21867;52.012;4.324;2023-03-01T15:16:48;8.27;;;6.03;;
35743;SDS011;21867;52.012;4.324;2023-03-01T15:19:16;9.53;;;6.03;;
35743;SDS011;21867;52.012;4.324;2023-03-01T15:21:46;7.80;;;5.77;;
35743;SDS011;21867;52.012;4.324;2023-03-01T15:24:16;10.83;;;5.53;;
35743;SDS011;21867;52.012;4.324;2023-03-01T15:26:45;7.17;;;4.03;;
35743;SDS011;21867;52.012;4.324;2023-03-01T15:29:15;10.83;;;5.70;;
35743;SDS011;21867;52.012;4.324;2023-03-01T15:31:52;9.33;;;5.43;;
35743;SDS011;21867;52.012;4.324;2023-03-01T15:34:21;7.43;;;5.70;;
35743;SDS011;21867;52.012;4.324;2023-03-01T15:36:49;6.57;;;4.80;;
35743;SDS011;21867;52.012;4.324;2023-03-01T15:39:26;7.00;;;4.37;;
35743;SDS011;21867;52.012;4.324;2023-03-01T15:41:55;9.70;;;5.10;;
35743;SDS011;21867;52.012;4.324;2023-03-01T15:44:25;5.00;;;4.47;;
35743;SDS011;21867;52.012;4.324;2023-03-01T15:47:00;7.93;;;4.40;;
35743;SDS011;21867;52.012;4.324;2023-03-01T15:49:32;6.00;;;5.40;;
35743;SDS011;21867;52.012;4.324;2023-03-01T15:52:03;10.33;;;6.77;;
35743;SDS011;21867;52.012;4.324;2023-03-01T15:54:30;6.07;;;5.47;;
35743;SDS011;21867;52.012;4.324;2023-03-01T15:57:02;8.73;;;6.13;;
35743;SDS011;21867;52.012;4.324;2023-03-01T15:59:29;6.47;;;5.57;;
35743;SDS011;21867;52.012;4.324;2023-03-01T16:01:56;5.67;;;5.00;;
35743;SDS011;21867;52.012;4.324;2023-03-01T16:04:23;8.73;;;5.03;;
35743;SDS011;21867;52.012;4.324;2023-03-01T16:06:51;10.93;;;6.97;;
35743;SDS011;21867;52.012;4.324;2023-03-01T16:09:19;8.27;;;6.70;;